sensor_id;sensor_type;location;lat;lon;timestamp;pressure;altitude;pressure_sealevel;temperature;humidity
71956;BME280;59829;50.562;6.258;2024-01-06T00:04:42;94383.13;;;9.77;75.63
71956;BME280;59829;50.562;6.258;2024-01-06T00:14:43;94398.16;;;9.80;75.66
71956;BME280;59829;50.562;6.258;2024-01-06T00:24:45;94404.88;;;9.81;75.75
71956;BME280;59829;50.562;6.258;2024-01-06T00:34:45;94410.00;;;9.81;75.56
71956;BME280;59829;50.562;6.258;2024-01-06T00:44:46;94411.59;;;9.82;75.80
71956;BME280;59829;50.562;6.258;2024-01-06T00:54:47;94415.75;;;9.83;75.99
71956;BME280;59829;50.562;6.258;2024-01-06T01:04:47;94411.59;;;9.82;75.91
71956;BME280;59829;50.562;6.258;2024-01-06T01:14:47;94410.34;;;9.86;75.97
71956;BME280;59829;50.562;6.258;2024-01-06T01:24:48;94424.72;;;9.87;76.00
71956;BME280;59829;50.562;6.258;2024-01-06T01:34:48;94439.09;;;9.80;75.87
71956;BME280;59829;50.562;6.258;2024-01-06T01:44:48;94433.34;;;9.86;76.12
71956;BME280;59829;50.562;6.258;2024-01-06T01:54:49;94451.09;;;9.88;76.24
71956;BME280;59829;50.562;6.258;2024-01-06T02:04:49;94459.59;;;9.88;76.35
71956;BME280;59829;50.562;6.258;2024-01-06T02:14:49;94463.47;;;9.92;76.46
71956;BME280;59829;50.562;6.258;2024-01-06T02:24:50;94464.75;;;9.96;76.65
71956;BME280;59829;50.562;6.258;2024-01-06T02:34:50;94477.41;;;9.98;76.32
71956;BME280;59829;50.562;6.258;2024-01-06T02:44:51;94491.94;;;9.97;76.55
71956;BME280;59829;50.562;6.258;2024-01-06T02:54:51;94501.88;;;10.01;76.54
71956;BME280;59829;50.562;6.258;2024-01-06T03:04:51;94507.63;;;10.03;76.54
71956;BME280;59829;50.562;6.258;2024-01-06T03:14:52;94511.00;;;10.03;76.62
71956;BME280;59829;50.562;6.258;2024-01-06T03:24:53;94520.44;;;10.03;76.62
71956;BME280;59829;50.562;6.258;2024-01-06T03:34:53;94522.34;;;10.01;76.70
71956;BME280;59829;50.562;6.258;2024-01-06T03:44:53;94527.47;;;10.01;76.74
71956;BME280;59829;50.562;6.258;2024-01-06T03:54:54;94537.69;;;10.01;76.90
71956;BME280;59829;50.562;6.258;2024-01-06T04:04:54;94546.97;;;10.02;76.75
71956;BME280;59829;50.562;6.258;2024-01-06T04:14:54;94539.44;;;10.00;76.87
71956;BME280;59829;50.562;6.258;2024-01-06T04:24:54;94553.03;;;10.01;76.74
71956;BME280;59829;50.562;6.258;2024-01-06T04:34:55;94558.31;;;9.99;76.53
71956;BME280;59829;50.562;6.258;2024-01-06T04:44:57;94554.16;;;9.98;76.71
71956;BME280;59829;50.562;6.258;2024-01-06T04:54:57;94549.19;;;9.96;76.62
71956;BME280;59829;50.562;6.258;2024-01-06T05:04:57;94558.75;;;9.94;76.48
71956;BME280;59829;50.562;6.258;2024-01-06T05:14:58;94567.69;;;9.90;76.50
71956;BME280;59829;50.562;6.258;2024-01-06T05:24:58;94571.06;;;9.91;76.58
71956;BME280;59829;50.562;6.258;2024-01-06T05:34:58;94577.13;;;9.90;76.80
71956;BME280;59829;50.562;6.258;2024-01-06T05:44:59;94579.78;;;9.88;76.86
71956;BME280;59829;50.562;6.258;2024-01-06T05:54:59;94607.13;;;9.88;76.78
71956;BME280;59829;50.562;6.258;2024-01-06T06:04:59;94623.28;;;9.88;76.98
71956;BME280;59829;50.562;6.258;2024-01-06T06:14:59;94630.38;;;9.94;76.96
71956;BME280;59829;50.562;6.258;2024-01-06T06:25:00;94643.84;;;9.96;76.95
71956;BME280;59829;50.562;6.258;2024-01-06T06:35:00;94656.19;;;10.01;76.66
71956;BME280;59829;50.562;6.258;2024-01-06T06:45:01;94674.53;;;9.96;76.33
71956;BME280;59829;50.562;6.258;2024-01-06T06:55:02;94682.91;;;9.89;75.98
71956;BME280;59829;50.562;6.258;2024-01-06T07:05:02;94702.56;;;9.88;75.73
71956;BME280;59829;50.562;6.258;2024-01-06T07:15:03;94723.03;;;9.88;75.77
71956;BME280;59829;50.562;6.258;2024-01-06T07:25:03;94730.34;;;9.83;75.31
71956;BME280;59829;50.562;6.258;2024-01-06T07:35:04;94750.81;;;9.83;75.10
71956;BME280;59829;50.562;6.258;2024-01-06T07:45:05;94762.28;;;9.79;74.58
71956;BME280;59829;50.562;6.258;2024-01-06T07:55:06;94770.53;;;9.73;74.40
71956;BME280;59829;50.562;6.258;2024-01-06T08:05:06;94793.81;;;9.70;74.28
71956;BME280;59829;50.562;6.258;2024-01-06T08:15:07;94799.94;;;9.59;74.22
71956;BME280;59829;50.562;6.258;2024-01-06T08:25:09;94819.88;;;9.56;73.77
71956;BME280;59829;50.562;6.258;2024-01-06T08:35:11;94832.53;;;9.48;74.10
71956;BME280;59829;50.562;6.258;2024-01-06T08:45:11;94841.13;;;9.47;73.93
71956;BME280;59829;50.562;6.258;2024-01-06T08:55:11;94861.59;;;9.47;74.17
71956;BME280;59829;50.562;6.258;2024-01-06T09:05:12;94866.47;;;9.40;73.78
71956;BME280;59829;50.562;6.258;2024-01-06T09:15:12;94881.13;;;9.38;74.13
71956;BME280;59829;50.562;6.258;2024-01-06T09:25:12;94898.22;;;9.38;73.86
71956;BME280;59829;50.562;6.258;2024-01-06T09:35:13;94905.19;;;9.35;73.99
71956;BME280;59829;50.562;6.258;2024-01-06T09:45:13;94927.25;;;9.36;74.00
71956;BME280;59829;50.562;6.258;2024-01-06T09:55:14;94931.81;;;9.33;73.91
71956;BME280;59829;50.562;6.258;2024-01-06T10:05:15;94941.25;;;9.32;73.74
71956;BME280;59829;50.562;6.258;2024-01-06T10:15:16;94939.09;;;9.38;73.72
71956;BME280;59829;50.562;6.258;2024-01-06T10:25:17;94928.88;;;9.38;73.54
71956;BME280;59829;50.562;6.258;2024-01-06T10:35:18;94933.72;;;9.31;73.37
71956;BME280;59829;50.562;6.258;2024-01-06T10:45:18;94945.03;;;9.28;73.54
71956;BME280;59829;50.562;6.258;2024-01-06T10:55:19;94950.00;;;9.30;73.24
71956;BME280;59829;50.562;6.258;2024-01-06T11:05:21;94952.28;;;9.23;73.21
71956;BME280;59829;50.562;6.258;2024-01-06T11:15:43;94951.72;;;8.81;73.34
71956;BME280;59829;50.562;6.258;2024-01-06T11:25:44;94958.78;;;8.58;73.88
71956;BME280;59829;50.562;6.258;2024-01-06T11:35:44;94955.94;;;8.42;73.94
71956;BME280;59829;50.562;6.258;2024-01-06T11:45:50;94960.88;;;8.34;73.92
71956;BME280;59829;50.562;6.258;2024-01-06T11:55:51;94962.03;;;8.30;74.26
71956;BME280;59829;50.562;6.258;2024-01-06T12:06:02;94960.38;;;8.19;74.15
71956;BME280;59829;50.562;6.258;2024-01-06T12:16:02;94966.88;;;8.02;74.13
71956;BME280;59829;50.562;6.258;2024-01-06T12:26:04;94974.19;;;7.86;74.30
71956;BME280;59829;50.562;6.258;2024-01-06T12:36:04;94969.56;;;7.80;74.41
71956;BME280;59829;50.562;6.258;2024-01-06T12:46:06;94971.44;;;7.78;74.63
71956;BME280;59829;50.562;6.258;2024-01-06T12:56:06;94988.94;;;7.82;74.83
71956;BME280;59829;50.562;6.258;2024-01-06T13:06:07;94996.13;;;7.77;74.80
71956;BME280;59829;50.562;6.258;2024-01-06T13:16:07;94994.25;;;7.79;74.86
71956;BME280;59829;50.562;6.258;2024-01-06T13:26:08;94999.34;;;7.79;74.75
71956;BME280;59829;50.562;6.258;2024-01-06T13:36:08;95004.09;;;7.84;74.79
71956;BME280;59829;50.562;6.258;2024-01-06T13:46:10;95019.19;;;7.76;74.84
71956;BME280;59829;50.562;6.258;2024-01-06T13:56:10;95017.09;;;7.81;74.99
71956;BME280;59829;50.562;6.258;2024-01-06T14:06:11;95028.22;;;7.80;74.92
71956;BME280;59829;50.562;6.258;2024-01-06T14:16:11;95042.28;;;7.74;74.73
71956;BME280;59829;50.562;6.258;2024-01-06T14:26:12;95043.63;;;7.78;74.82
71956;BME280;59829;50.562;6.258;2024-01-06T14:36:12;95058.88;;;7.69;74.83
71956;BME280;59829;50.562;6.258;2024-01-06T14:46:12;95073.41;;;7.78;75.16
71956;BME280;59829;50.562;6.258;2024-01-06T14:56:12;95079.97;;;7.71;75.06
71956;BME280;59829;50.562;6.258;2024-01-06T15:06:13;95086.84;;;7.80;75.37
71956;BME280;59829;50.562;6.258;2024-01-06T15:16:13;95115.13;;;7.88;75.28
71956;BME280;59829;50.562;6.258;2024-01-06T15:26:23;95112.75;;;7.96;75.66
71956;BME280;59829;50.562;6.258;2024-01-06T15:36:24;95127.56;;;8.02;75.69
71956;BME280;59829;50.562;6.258;2024-01-06T15:55:21;95148.28;;;8.41;75.57
71956;BME280;59829;50.562;6.258;2024-01-06T16:05:21;95158.72;;;8.38;75.75
71956;BME280;59829;50.562;6.258;2024-01-06T16:15:21;95161.97;;;8.29;75.87
71956;BME280;59829;50.562;6.258;2024-01-06T16:25:24;95164.22;;;8.22;76.06
71956;BME280;59829;50.562;6.258;2024-01-06T16:35:25;95176.88;;;8.24;76.24
71956;BME280;59829;50.562;6.258;2024-01-06T16:45:25;95179.16;;;8.27;76.56
71956;BME280;59829;50.562;6.258;2024-01-06T16:55:27;95196.06;;;8.39;76.84
71956;BME280;59829;50.562;6.258;2024-01-06T17:05:27;95200.69;;;8.45;77.21
71956;BME280;59829;50.562;6.258;2024-01-06T17:15:27;95205.78;;;8.45;77.13
71956;BME280;59829;50.562;6.258;2024-01-06T17:25:28;95209.28;;;8.44;77.07
71956;BME280;59829;50.562;6.258;2024-01-06T17:35:29;95209.53;;;8.41;77.15
71956;BME280;59829;50.562;6.258;2024-01-06T17:45:29;95213.88;;;8.50;77.41
71956;BME280;59829;50.562;6.258;2024-01-06T17:55:29;95225.72;;;8.51;77.56
71956;BME280;59829;50.562;6.258;2024-01-06T18:05:29;95241.03;;;8.51;77.54
71956;BME280;59829;50.562;6.258;2024-01-06T18:15:30;95259.59;;;8.53;77.60
71956;BME280;59829;50.562;6.258;2024-01-06T18:25:30;95263.88;;;8.53;77.73
71956;BME280;59829;50.562;6.258;2024-01-06T18:35:30;95269.81;;;8.53;77.51
71956;BME280;59829;50.562;6.258;2024-01-06T18:45:31;95267.13;;;8.55;77.72
71956;BME280;59829;50.562;6.258;2024-01-06T18:55:31;95273.84;;;8.56;77.68
71956;BME280;59829;50.562;6.258;2024-01-06T19:05:31;95277.09;;;8.58;77.74
71956;BME280;59829;50.562;6.258;2024-01-06T19:15:33;95277.66;;;8.61;77.86
71956;BME280;59829;50.562;6.258;2024-01-06T19:25:33;95291.09;;;8.63;77.86
71956;BME280;59829;50.562;6.258;2024-01-06T19:35:34;95292.47;;;8.67;78.03
71956;BME280;59829;50.562;6.258;2024-01-06T19:45:34;95298.97;;;8.71;78.04
71956;BME280;59829;50.562;6.258;2024-01-06T19:55:34;95313.59;;;8.69;77.98
71956;BME280;59829;50.562;6.258;2024-01-06T20:05:34;95310.69;;;8.74;78.19
71956;BME280;59829;50.562;6.258;2024-01-06T20:15:35;95316.97;;;8.70;77.98
71956;BME280;59829;50.562;6.258;2024-01-06T20:25:35;95308.72;;;8.66;77.99
71956;BME280;59829;50.562;6.258;2024-01-06T20:35:38;95304.00;;;8.62;77.77
71956;BME280;59829;50.562;6.258;2024-01-06T20:45:38;95308.53;;;8.58;77.85
71956;BME280;59829;50.562;6.258;2024-01-06T20:55:40;95311.34;;;8.55;77.73
71956;BME280;59829;50.562;6.258;2024-01-06T21:05:41;95305.53;;;8.53;77.71
71956;BME280;59829;50.562;6.258;2024-01-06T21:15:41;95304.94;;;8.50;77.68
71956;BME280;59829;50.562;6.258;2024-01-06T21:25:41;95321.19;;;8.60;77.78
71956;BME280;59829;50.562;6.258;2024-01-06T21:35:42;95316.88;;;8.60;77.82
71956;BME280;59829;50.562;6.258;2024-01-06T21:45:43;95334.06;;;8.58;77.67
71956;BME280;59829;50.562;6.258;2024-01-06T21:55:43;95328.66;;;8.72;77.92
71956;BME280;59829;50.562;6.258;2024-01-06T22:05:43;95337.44;;;8.80;77.90
71956;BME280;59829;50.562;6.258;2024-01-06T22:15:43;95336.78;;;8.77;77.53
71956;BME280;59829;50.562;6.258;2024-01-06T22:25:44;95347.41;;;8.83;77.87
71956;BME280;59829;50.562;6.258;2024-01-06T22:35:47;95354.16;;;8.84;77.69
71956;BME280;59829;50.562;6.258;2024-01-06T22:45:47;95364.94;;;8.87;77.78
71956;BME280;59829;50.562;6.258;2024-01-06T22:55:47;95370.88;;;8.88;77.42
71956;BME280;59829;50.562;6.258;2024-01-06T23:05:48;95367.38;;;8.89;77.41
71956;BME280;59829;50.562;6.258;2024-01-06T23:15:48;95372.50;;;8.89;77.16
71956;BME280;59829;50.562;6.258;2024-01-06T23:25:49;95378.53;;;8.88;77.22
71956;BME280;59829;50.562;6.258;2024-01-06T23:35:49;95378.31;;;8.80;76.95
71956;BME280;59829;50.562;6.258;2024-01-06T23:45:49;95381.31;;;8.85;77.34
71956;BME280;59829;50.562;6.258;2024-01-06T23:55:50;95392.13;;;8.88;76.98
